sensor_id;sensor_type;location;lat;lon;timestamp;temperature;humidity
10453;DHT22;5274;51.992;8.518;2022-12-07T00:01:34;3.50;99.90
10453;DHT22;5274;51.992;8.518;2022-12-07T00:04:02;3.50;99.90
10453;DHT22;5274;51.992;8.518;2022-12-07T00:06:33;3.50;99.90
10453;DHT22;5274;51.992;8.518;2022-12-07T00:08:59;3.60;99.90
10453;DHT22;5274;51.992;8.518;2022-12-07T00:11:25;3.60;99.90
10453;DHT22;5274;51.992;8.518;2022-12-07T00:13:58;3.60;99.90
10453;DHT22;5274;51.992;8.518;2022-12-07T00:16:26;3.60;99.90
10453;DHT22;5274;51.992;8.518;2022-12-07T00:18:52;3.70;99.90
10453;DHT22;5274;51.992;8.518;2022-12-07T00:21:21;3.70;99.90
10453;DHT22;5274;51.992;8.518;2022-12-07T00:23:48;3.70;99.90
10453;DHT22;5274;51.992;8.518;2022-12-07T00:26:17;3.70;99.90
10453;DHT22;5274;51.992;8.518;2022-12-07T00:28:51;3.70;99.90
10453;DHT22;5274;51.992;8.518;2022-12-07T00:31:19;3.70;99.90
10453;DHT22;5274;51.992;8.518;2022-12-07T00:33:46;3.70;99.90
10453;DHT22;5274;51.992;8.518;2022-12-07T00:36:14;3.70;99.90
10453;DHT22;5274;51.992;8.518;2022-12-07T00:38:40;3.80;99.90
10453;DHT22;5274;51.992;8.518;2022-12-07T00:41:12;3.80;99.90
10453;DHT22;5274;51.992;8.518;2022-12-07T00:43:38;3.80;99.90
10453;DHT22;5274;51.992;8.518;2022-12-07T00:46:04;3.70;99.90
10453;DHT22;5274;51.992;8.518;2022-12-07T00:48:30;3.80;99.90
10453;DHT22;5274;51.992;8.518;2022-12-07T00:50:56;3.80;99.90
10453;DHT22;5274;51.992;8.518;2022-12-07T00:53:22;3.80;99.90
10453;DHT22;5274;51.992;8.518;2022-12-07T00:55:48;3.80;99.90
10453;DHT22;5274;51.992;8.518;2022-12-07T00:58:14;3.80;99.90
10453;DHT22;5274;51.992;8.518;2022-12-07T01:00:41;3.80;99.90
10453;DHT22;5274;51.992;8.518;2022-12-07T01:03:09;3.80;99.90
10453;DHT22;5274;51.992;8.518;2022-12-07T01:05:35;3.90;99.90
10453;DHT22;5274;51.992;8.518;2022-12-07T01:08:01;3.90;99.90
10453;DHT22;5274;51.992;8.518;2022-12-07T01:10:26;3.90;99.90
10453;DHT22;5274;51.992;8.518;2022-12-07T01:12:52;3.90;99.90
10453;DHT22;5274;51.992;8.518;2022-12-07T01:15:18;3.90;99.90
10453;DHT22;5274;51.992;8.518;2022-12-07T01:17:44;3.90;99.90
10453;DHT22;5274;51.992;8.518;2022-12-07T01:20:10;3.90;99.90
10453;DHT22;5274;51.992;8.518;2022-12-07T01:22:42;3.90;99.90
10453;DHT22;5274;51.992;8.518;2022-12-07T01:25:09;4.00;99.90
10453;DHT22;5274;51.992;8.518;2022-12-07T01:27:36;3.90;99.90
10453;DHT22;5274;51.992;8.518;2022-12-07T01:30:04;4.00;99.90
10453;DHT22;5274;51.992;8.518;2022-12-07T01:32:30;4.00;99.90
10453;DHT22;5274;51.992;8.518;2022-12-07T01:34:55;4.00;99.90
10453;DHT22;5274;51.992;8.518;2022-12-07T01:37:21;4.00;99.90
10453;DHT22;5274;51.992;8.518;2022-12-07T01:39:51;4.00;99.90
10453;DHT22;5274;51.992;8.518;2022-12-07T01:42:17;4.00;99.90
10453;DHT22;5274;51.992;8.518;2022-12-07T01:47:48;4.00;99.90
10453;DHT22;5274;51.992;8.518;2022-12-07T01:50:16;4.00;99.90
10453;DHT22;5274;51.992;8.518;2022-12-07T01:52:42;4.00;99.90
10453;DHT22;5274;51.992;8.518;2022-12-07T01:55:12;4.00;99.90
10453;DHT22;5274;51.992;8.518;2022-12-07T01:57:42;4.00;99.90
10453;DHT22;5274;51.992;8.518;2022-12-07T02:00:10;3.90;99.90
10453;DHT22;5274;51.992;8.518;2022-12-07T02:05:10;3.90;99.90
10453;DHT22;5274;51.992;8.518;2022-12-07T02:07:38;3.90;99.90
10453;DHT22;5274;51.992;8.518;2022-12-07T02:10:18;3.90;99.90
10453;DHT22;5274;51.992;8.518;2022-12-07T02:12:49;3.90;99.90
10453;DHT22;5274;51.992;8.518;2022-12-07T02:15:17;3.90;99.90
10453;DHT22;5274;51.992;8.518;2022-12-07T02:20:30;3.90;99.90
10453;DHT22;5274;51.992;8.518;2022-12-07T02:23:29;3.90;99.90
10453;DHT22;5274;51.992;8.518;2022-12-07T02:26:26;3.90;99.90
10453;DHT22;5274;51.992;8.518;2022-12-07T02:29:21;3.90;99.90
10453;DHT22;5274;51.992;8.518;2022-12-07T02:35:04;3.90;99.90
10453;DHT22;5274;51.992;8.518;2022-12-07T02:37:54;3.90;99.90
10453;DHT22;5274;51.992;8.518;2022-12-07T02:40:33;3.90;99.90
10453;DHT22;5274;51.992;8.518;2022-12-07T02:43:26;3.90;99.90
10453;DHT22;5274;51.992;8.518;2022-12-07T02:45:57;3.90;99.90
10453;DHT22;5274;51.992;8.518;2022-12-07T02:48:24;3.90;99.90
10453;DHT22;5274;51.992;8.518;2022-12-07T02:50:52;3.90;99.90
10453;DHT22;5274;51.992;8.518;2022-12-07T02:53:40;3.80;99.90
10453;DHT22;5274;51.992;8.518;2022-12-07T02:56:13;3.80;99.90
10453;DHT22;5274;51.992;8.518;2022-12-07T02:59:44;3.80;99.90
10453;DHT22;5274;51.992;8.518;2022-12-07T03:01:50;3.80;99.90
10453;DHT22;5274;51.992;8.518;2022-12-07T03:04:45;3.90;99.90
10453;DHT22;5274;51.992;8.518;2022-12-07T03:07:21;3.80;99.90
10453;DHT22;5274;51.992;8.518;2022-12-07T03:15:38;3.80;99.90
10453;DHT22;5274;51.992;8.518;2022-12-07T03:18:07;3.80;99.90
10453;DHT22;5274;51.992;8.518;2022-12-07T03:20:37;3.80;99.90
10453;DHT22;5274;51.992;8.518;2022-12-07T03:23:06;3.80;99.90
10453;DHT22;5274;51.992;8.518;2022-12-07T03:25:37;3.80;99.90
10453;DHT22;5274;51.992;8.518;2022-12-07T03:28:06;3.80;99.90
10453;DHT22;5274;51.992;8.518;2022-12-07T03:30:58;3.80;99.90
10453;DHT22;5274;51.992;8.518;2022-12-07T03:33:30;3.80;99.90
10453;DHT22;5274;51.992;8.518;2022-12-07T03:36:11;3.80;99.90
10453;DHT22;5274;51.992;8.518;2022-12-07T03:38:53;3.80;99.90
10453;DHT22;5274;51.992;8.518;2022-12-07T03:41:25;3.80;99.90
10453;DHT22;5274;51.992;8.518;2022-12-07T03:43:54;3.80;99.90
10453;DHT22;5274;51.992;8.518;2022-12-07T03:51:57;3.70;99.90
10453;DHT22;5274;51.992;8.518;2022-12-07T03:54:36;3.70;99.90
10453;DHT22;5274;51.992;8.518;2022-12-07T03:57:04;3.60;99.90
10453;DHT22;5274;51.992;8.518;2022-12-07T03:59:30;3.60;99.90
10453;DHT22;5274;51.992;8.518;2022-12-07T04:01:59;3.60;99.90
10453;DHT22;5274;51.992;8.518;2022-12-07T04:04:26;3.60;99.90
10453;DHT22;5274;51.992;8.518;2022-12-07T04:06:53;3.60;99.90
10453;DHT22;5274;51.992;8.518;2022-12-07T04:09:18;3.60;99.90
10453;DHT22;5274;51.992;8.518;2022-12-07T04:11:44;3.50;99.90
10453;DHT22;5274;51.992;8.518;2022-12-07T04:14:10;3.40;99.90
10453;DHT22;5274;51.992;8.518;2022-12-07T04:19:11;3.40;99.90
10453;DHT22;5274;51.992;8.518;2022-12-07T04:21:37;3.40;99.90
10453;DHT22;5274;51.992;8.518;2022-12-07T04:24:03;3.50;99.90
10453;DHT22;5274;51.992;8.518;2022-12-07T04:26:29;3.40;99.90
10453;DHT22;5274;51.992;8.518;2022-12-07T04:28:55;3.40;99.90
10453;DHT22;5274;51.992;8.518;2022-12-07T04:31:20;3.40;99.90
10453;DHT22;5274;51.992;8.518;2022-12-07T04:33:46;3.30;99.90
10453;DHT22;5274;51.992;8.518;2022-12-07T04:36:11;3.30;99.90
10453;DHT22;5274;51.992;8.518;2022-12-07T04:38:37;3.40;99.90
10453;DHT22;5274;51.992;8.518;2022-12-07T04:41:06;3.30;99.90
10453;DHT22;5274;51.992;8.518;2022-12-07T04:43:33;3.30;99.90
10453;DHT22;5274;51.992;8.518;2022-12-07T04:45:58;3.30;99.90
10453;DHT22;5274;51.992;8.518;2022-12-07T04:48:24;3.30;99.90
10453;DHT22;5274;51.992;8.518;2022-12-07T04:50:49;3.30;99.90
10453;DHT22;5274;51.992;8.518;2022-12-07T04:53:15;3.40;99.90
10453;DHT22;5274;51.992;8.518;2022-12-07T04:55:41;3.30;99.90
10453;DHT22;5274;51.992;8.518;2022-12-07T04:58:06;3.30;99.90
10453;DHT22;5274;51.992;8.518;2022-12-07T05:00:32;3.20;99.90
10453;DHT22;5274;51.992;8.518;2022-12-07T05:02:57;3.20;99.90
10453;DHT22;5274;51.992;8.518;2022-12-07T05:05:23;3.20;99.90
10453;DHT22;5274;51.992;8.518;2022-12-07T05:07:50;3.20;99.90
10453;DHT22;5274;51.992;8.518;2022-12-07T05:10:16;3.10;99.90
10453;DHT22;5274;51.992;8.518;2022-12-07T05:12:41;3.10;99.90
10453;DHT22;5274;51.992;8.518;2022-12-07T05:15:07;3.10;99.90
10453;DHT22;5274;51.992;8.518;2022-12-07T05:17:33;3.10;99.90
10453;DHT22;5274;51.992;8.518;2022-12-07T05:19:59;3.00;99.90
10453;DHT22;5274;51.992;8.518;2022-12-07T05:22:24;3.00;99.90
10453;DHT22;5274;51.992;8.518;2022-12-07T05:24:54;3.00;99.90
10453;DHT22;5274;51.992;8.518;2022-12-07T05:27:19;3.00;99.90
10453;DHT22;5274;51.992;8.518;2022-12-07T05:29:45;3.00;99.90
10453;DHT22;5274;51.992;8.518;2022-12-07T05:32:10;3.00;99.90
10453;DHT22;5274;51.992;8.518;2022-12-07T05:34:36;2.90;99.90
10453;DHT22;5274;51.992;8.518;2022-12-07T05:37:01;2.90;99.90
10453;DHT22;5274;51.992;8.518;2022-12-07T05:39:27;3.00;99.90
10453;DHT22;5274;51.992;8.518;2022-12-07T05:41:52;2.90;99.90
10453;DHT22;5274;51.992;8.518;2022-12-07T05:44:47;3.00;99.90
10453;DHT22;5274;51.992;8.518;2022-12-07T05:47:14;2.90;99.90
10453;DHT22;5274;51.992;8.518;2022-12-07T05:49:40;2.90;99.90
10453;DHT22;5274;51.992;8.518;2022-12-07T05:52:06;2.90;99.90
10453;DHT22;5274;51.992;8.518;2022-12-07T05:54:32;2.80;99.90
10453;DHT22;5274;51.992;8.518;2022-12-07T05:56:58;2.80;99.90
10453;DHT22;5274;51.992;8.518;2022-12-07T05:59:23;2.80;99.90
10453;DHT22;5274;51.992;8.518;2022-12-07T06:02:00;2.80;99.90
10453;DHT22;5274;51.992;8.518;2022-12-07T06:04:30;2.90;99.90
10453;DHT22;5274;51.992;8.518;2022-12-07T06:06:55;2.80;99.90
10453;DHT22;5274;51.992;8.518;2022-12-07T06:09:22;2.90;99.90
10453;DHT22;5274;51.992;8.518;2022-12-07T06:11:48;2.80;99.90
10453;DHT22;5274;51.992;8.518;2022-12-07T06:14:32;2.90;99.90
10453;DHT22;5274;51.992;8.518;2022-12-07T06:16:58;2.80;99.90
10453;DHT22;5274;51.992;8.518;2022-12-07T06:19:24;2.80;99.90
10453;DHT22;5274;51.992;8.518;2022-12-07T06:21:50;2.80;99.90
10453;DHT22;5274;51.992;8.518;2022-12-07T06:24:16;2.80;99.90
10453;DHT22;5274;51.992;8.518;2022-12-07T06:26:42;2.90;99.90
10453;DHT22;5274;51.992;8.518;2022-12-07T06:29:08;2.80;99.90
10453;DHT22;5274;51.992;8.518;2022-12-07T06:31:35;2.80;99.90
10453;DHT22;5274;51.992;8.518;2022-12-07T06:34:03;2.80;99.90
10453;DHT22;5274;51.992;8.518;2022-12-07T06:36:29;2.70;99.90
10453;DHT22;5274;51.992;8.518;2022-12-07T06:38:55;2.80;99.90
10453;DHT22;5274;51.992;8.518;2022-12-07T06:41:21;2.70;99.90
10453;DHT22;5274;51.992;8.518;2022-12-07T06:43:47;2.60;99.90
10453;DHT22;5274;51.992;8.518;2022-12-07T06:46:13;2.60;99.90
10453;DHT22;5274;51.992;8.518;2022-12-07T06:48:39;2.70;99.90
10453;DHT22;5274;51.992;8.518;2022-12-07T06:51:05;2.60;99.90
10453;DHT22;5274;51.992;8.518;2022-12-07T06:53:30;2.60;99.90
10453;DHT22;5274;51.992;8.518;2022-12-07T06:55:56;2.60;99.90
10453;DHT22;5274;51.992;8.518;2022-12-07T06:58:21;2.60;99.90
10453;DHT22;5274;51.992;8.518;2022-12-07T07:00:48;2.60;99.90
10453;DHT22;5274;51.992;8.518;2022-12-07T07:03:14;2.60;99.90
10453;DHT22;5274;51.992;8.518;2022-12-07T07:05:41;2.70;99.90
10453;DHT22;5274;51.992;8.518;2022-12-07T07:08:06;2.60;99.90
10453;DHT22;5274;51.992;8.518;2022-12-07T07:10:32;2.60;99.90
10453;DHT22;5274;51.992;8.518;2022-12-07T07:12:57;2.60;99.90
10453;DHT22;5274;51.992;8.518;2022-12-07T07:15:23;2.60;99.90
10453;DHT22;5274;51.992;8.518;2022-12-07T07:17:49;2.60;99.90
10453;DHT22;5274;51.992;8.518;2022-12-07T07:20:14;2.60;99.90
10453;DHT22;5274;51.992;8.518;2022-12-07T07:22:40;2.60;99.90
10453;DHT22;5274;51.992;8.518;2022-12-07T07:25:06;2.60;99.90
10453;DHT22;5274;51.992;8.518;2022-12-07T07:27:32;2.60;99.90
10453;DHT22;5274;51.992;8.518;2022-12-07T07:29:57;2.60;99.90
10453;DHT22;5274;51.992;8.518;2022-12-07T07:32:23;2.60;99.90
10453;DHT22;5274;51.992;8.518;2022-12-07T07:34:49;2.60;99.90
10453;DHT22;5274;51.992;8.518;2022-12-07T07:37:14;2.60;99.90
10453;DHT22;5274;51.992;8.518;2022-12-07T07:39:40;2.70;99.90
10453;DHT22;5274;51.992;8.518;2022-12-07T07:42:05;2.60;99.90
10453;DHT22;5274;51.992;8.518;2022-12-07T07:44:33;2.60;99.90
10453;DHT22;5274;51.992;8.518;2022-12-07T07:46:58;2.60;99.90
10453;DHT22;5274;51.992;8.518;2022-12-07T07:49:24;2.60;99.90
10453;DHT22;5274;51.992;8.518;2022-12-07T07:51:50;2.70;99.90
10453;DHT22;5274;51.992;8.518;2022-12-07T07:54:16;2.60;99.90
10453;DHT22;5274;51.992;8.518;2022-12-07T07:56:41;2.60;99.90
10453;DHT22;5274;51.992;8.518;2022-12-07T07:59:07;2.60;99.90
10453;DHT22;5274;51.992;8.518;2022-12-07T08:01:33;2.60;99.90
10453;DHT22;5274;51.992;8.518;2022-12-07T08:03:59;2.60;99.90
10453;DHT22;5274;51.992;8.518;2022-12-07T08:06:25;2.50;99.90
10453;DHT22;5274;51.992;8.518;2022-12-07T08:08:50;2.50;99.90
10453;DHT22;5274;51.992;8.518;2022-12-07T08:11:16;2.60;99.90
10453;DHT22;5274;51.992;8.518;2022-12-07T08:13:41;2.60;99.90
10453;DHT22;5274;51.992;8.518;2022-12-07T08:16:10;2.60;99.90
10453;DHT22;5274;51.992;8.518;2022-12-07T08:18:37;2.50;99.90
10453;DHT22;5274;51.992;8.518;2022-12-07T08:21:04;2.60;99.90
10453;DHT22;5274;51.992;8.518;2022-12-07T08:23:30;2.50;99.90
10453;DHT22;5274;51.992;8.518;2022-12-07T08:26:00;2.50;99.90
10453;DHT22;5274;51.992;8.518;2022-12-07T08:28:26;2.50;99.90
10453;DHT22;5274;51.992;8.518;2022-12-07T08:30:51;2.50;99.90
10453;DHT22;5274;51.992;8.518;2022-12-07T08:33:17;2.60;99.90
10453;DHT22;5274;51.992;8.518;2022-12-07T08:35:42;2.60;99.90
10453;DHT22;5274;51.992;8.518;2022-12-07T08:38:08;2.60;99.90
10453;DHT22;5274;51.992;8.518;2022-12-07T08:40:34;2.70;99.90
10453;DHT22;5274;51.992;8.518;2022-12-07T08:43:00;2.60;99.90
10453;DHT22;5274;51.992;8.518;2022-12-07T08:45:26;2.70;99.90
10453;DHT22;5274;51.992;8.518;2022-12-07T08:47:57;2.70;99.90
10453;DHT22;5274;51.992;8.518;2022-12-07T08:50:24;2.70;99.90
10453;DHT22;5274;51.992;8.518;2022-12-07T08:52:53;2.80;99.90
10453;DHT22;5274;51.992;8.518;2022-12-07T08:55:19;2.90;99.90
10453;DHT22;5274;51.992;8.518;2022-12-07T08:57:45;2.80;99.90
10453;DHT22;5274;51.992;8.518;2022-12-07T09:00:11;2.80;99.90
10453;DHT22;5274;51.992;8.518;2022-12-07T09:02:37;2.80;99.90
10453;DHT22;5274;51.992;8.518;2022-12-07T09:05:03;2.70;99.90
10453;DHT22;5274;51.992;8.518;2022-12-07T09:07:30;2.80;99.90
10453;DHT22;5274;51.992;8.518;2022-12-07T09:09:55;2.70;99.90
10453;DHT22;5274;51.992;8.518;2022-12-07T09:12:21;2.70;99.90
10453;DHT22;5274;51.992;8.518;2022-12-07T09:14:47;2.80;99.90
10453;DHT22;5274;51.992;8.518;2022-12-07T09:17:13;2.80;99.90
10453;DHT22;5274;51.992;8.518;2022-12-07T09:19:38;2.70;99.90
10453;DHT22;5274;51.992;8.518;2022-12-07T09:22:04;2.80;99.90
10453;DHT22;5274;51.992;8.518;2022-12-07T09:24:31;2.80;99.90
10453;DHT22;5274;51.992;8.518;2022-12-07T09:26:57;2.80;99.90
10453;DHT22;5274;51.992;8.518;2022-12-07T09:29:23;2.80;99.90
10453;DHT22;5274;51.992;8.518;2022-12-07T09:31:49;2.80;99.90
10453;DHT22;5274;51.992;8.518;2022-12-07T09:34:14;2.80;99.90
10453;DHT22;5274;51.992;8.518;2022-12-07T09:36:40;2.70;99.90
10453;DHT22;5274;51.992;8.518;2022-12-07T09:39:06;2.80;99.90
10453;DHT22;5274;51.992;8.518;2022-12-07T09:41:32;2.80;99.90
10453;DHT22;5274;51.992;8.518;2022-12-07T09:44:06;2.90;99.90
10453;DHT22;5274;51.992;8.518;2022-12-07T09:46:38;2.90;99.90
10453;DHT22;5274;51.992;8.518;2022-12-07T09:49:05;3.00;99.90
10453;DHT22;5274;51.992;8.518;2022-12-07T09:51:35;3.00;99.90
10453;DHT22;5274;51.992;8.518;2022-12-07T09:54:01;3.00;99.90
10453;DHT22;5274;51.992;8.518;2022-12-07T09:56:29;2.90;99.90
10453;DHT22;5274;51.992;8.518;2022-12-07T09:59:00;3.00;99.90
10453;DHT22;5274;51.992;8.518;2022-12-07T10:01:31;3.00;99.90
10453;DHT22;5274;51.992;8.518;2022-12-07T10:04:10;3.10;99.90
10453;DHT22;5274;51.992;8.518;2022-12-07T10:06:38;3.00;99.90
10453;DHT22;5274;51.992;8.518;2022-12-07T10:09:15;3.00;99.90
10453;DHT22;5274;51.992;8.518;2022-12-07T10:14:31;3.10;99.90
10453;DHT22;5274;51.992;8.518;2022-12-07T10:16:57;3.20;99.90
10453;DHT22;5274;51.992;8.518;2022-12-07T10:19:31;3.30;99.90
10453;DHT22;5274;51.992;8.518;2022-12-07T10:22:16;3.20;99.90
10453;DHT22;5274;51.992;8.518;2022-12-07T10:24:44;3.30;99.90
10453;DHT22;5274;51.992;8.518;2022-12-07T10:27:18;3.30;99.90
10453;DHT22;5274;51.992;8.518;2022-12-07T10:29:52;3.50;99.90
10453;DHT22;5274;51.992;8.518;2022-12-07T10:34:43;3.70;99.90
10453;DHT22;5274;51.992;8.518;2022-12-07T10:39:45;3.70;99.90
10453;DHT22;5274;51.992;8.518;2022-12-07T10:42:22;3.80;99.90
10453;DHT22;5274;51.992;8.518;2022-12-07T10:44:49;3.90;99.40
10453;DHT22;5274;51.992;8.518;2022-12-07T11:00:01;3.80;70.50
10453;DHT22;5274;51.992;8.518;2022-12-07T11:05:58;4.00;99.00
10453;DHT22;5274;51.992;8.518;2022-12-07T11:11:26;4.10;1.00
10453;DHT22;5274;51.992;8.518;2022-12-07T11:14:27;4.00;19.00
10453;DHT22;5274;51.992;8.518;2022-12-07T11:17:01;4.10;1.00
10453;DHT22;5274;51.992;8.518;2022-12-07T11:19:53;4.60;1.00
10453;DHT22;5274;51.992;8.518;2022-12-07T11:27:46;4.40;1.00
10453;DHT22;5274;51.992;8.518;2022-12-07T11:30:38;4.30;1.00
10453;DHT22;5274;51.992;8.518;2022-12-07T11:33:43;4.30;1.00
10453;DHT22;5274;51.992;8.518;2022-12-07T11:36:31;4.20;1.00
10453;DHT22;5274;51.992;8.518;2022-12-07T11:39:36;4.20;1.00
10453;DHT22;5274;51.992;8.518;2022-12-07T11:42:15;4.30;1.00
10453;DHT22;5274;51.992;8.518;2022-12-07T11:44:55;4.30;1.00
10453;DHT22;5274;51.992;8.518;2022-12-07T11:50:32;4.30;1.00
10453;DHT22;5274;51.992;8.518;2022-12-07T11:53:03;4.40;1.00
10453;DHT22;5274;51.992;8.518;2022-12-07T12:01:13;4.60;1.00
10453;DHT22;5274;51.992;8.518;2022-12-07T12:06:37;5.20;99.90
10453;DHT22;5274;51.992;8.518;2022-12-07T12:09:13;5.20;99.90
10453;DHT22;5274;51.992;8.518;2022-12-07T12:15:11;5.20;1.00
10453;DHT22;5274;51.992;8.518;2022-12-07T12:20:00;5.60;89.70
10453;DHT22;5274;51.992;8.518;2022-12-07T12:22:39;5.50;1.00
10453;DHT22;5274;51.992;8.518;2022-12-07T12:25:13;5.30;1.00
10453;DHT22;5274;51.992;8.518;2022-12-07T12:27:45;5.10;1.00
10453;DHT22;5274;51.992;8.518;2022-12-07T12:33:27;5.10;1.00
10453;DHT22;5274;51.992;8.518;2022-12-07T12:36:19;5.10;1.00
10453;DHT22;5274;51.992;8.518;2022-12-07T12:46:58;5.10;1.00
10453;DHT22;5274;51.992;8.518;2022-12-07T12:51:58;4.90;1.00
10453;DHT22;5274;51.992;8.518;2022-12-07T12:54:29;4.80;99.90
10453;DHT22;5274;51.992;8.518;2022-12-07T12:57:24;4.80;70.50
10453;DHT22;5274;51.992;8.518;2022-12-07T13:02:31;4.90;1.00
10453;DHT22;5274;51.992;8.518;2022-12-07T13:07:49;4.90;99.90
10453;DHT22;5274;51.992;8.518;2022-12-07T13:29:12;4.80;12.60
10453;DHT22;5274;51.992;8.518;2022-12-07T13:31:42;4.80;99.90
10453;DHT22;5274;51.992;8.518;2022-12-07T13:36:52;4.70;99.90
10453;DHT22;5274;51.992;8.518;2022-12-07T13:39:20;4.90;99.90
10453;DHT22;5274;51.992;8.518;2022-12-07T13:41:56;4.70;99.90
10453;DHT22;5274;51.992;8.518;2022-12-07T13:44:23;4.80;99.90
10453;DHT22;5274;51.992;8.518;2022-12-07T13:49:52;4.80;99.90
10453;DHT22;5274;51.992;8.518;2022-12-07T13:52:20;4.90;99.90
10453;DHT22;5274;51.992;8.518;2022-12-07T13:57:22;4.70;99.90
10453;DHT22;5274;51.992;8.518;2022-12-07T13:59:50;4.70;99.90
10453;DHT22;5274;51.992;8.518;2022-12-07T14:02:24;4.70;99.90
10453;DHT22;5274;51.992;8.518;2022-12-07T14:04:51;4.60;1.00
10453;DHT22;5274;51.992;8.518;2022-12-07T14:07:26;4.70;1.00
10453;DHT22;5274;51.992;8.518;2022-12-07T14:09:57;4.60;99.90
10453;DHT22;5274;51.992;8.518;2022-12-07T14:12:24;4.70;1.00
10453;DHT22;5274;51.992;8.518;2022-12-07T14:14:50;4.70;99.90
10453;DHT22;5274;51.992;8.518;2022-12-07T14:17:19;4.70;5.80
10453;DHT22;5274;51.992;8.518;2022-12-07T14:19:48;4.70;1.00
10453;DHT22;5274;51.992;8.518;2022-12-07T14:27:40;4.60;99.90
10453;DHT22;5274;51.992;8.518;2022-12-07T14:30:16;4.50;99.90
10453;DHT22;5274;51.992;8.518;2022-12-07T14:32:43;4.40;1.00
10453;DHT22;5274;51.992;8.518;2022-12-07T14:35:15;4.40;1.00
10453;DHT22;5274;51.992;8.518;2022-12-07T14:37:44;4.40;1.00
10453;DHT22;5274;51.992;8.518;2022-12-07T14:40:14;4.50;1.00
10453;DHT22;5274;51.992;8.518;2022-12-07T14:42:41;4.60;1.00
10453;DHT22;5274;51.992;8.518;2022-12-07T14:45:13;4.60;1.00
10453;DHT22;5274;51.992;8.518;2022-12-07T14:47:39;4.50;1.00
10453;DHT22;5274;51.992;8.518;2022-12-07T14:50:05;4.40;35.80
10453;DHT22;5274;51.992;8.518;2022-12-07T14:52:31;4.40;89.90
10453;DHT22;5274;51.992;8.518;2022-12-07T14:54:57;4.40;99.90
10453;DHT22;5274;51.992;8.518;2022-12-07T14:57:23;4.40;99.90
10453;DHT22;5274;51.992;8.518;2022-12-07T14:59:48;4.40;99.90
10453;DHT22;5274;51.992;8.518;2022-12-07T15:02:15;4.40;99.90
10453;DHT22;5274;51.992;8.518;2022-12-07T15:04:41;4.30;99.90
10453;DHT22;5274;51.992;8.518;2022-12-07T15:07:18;4.20;99.90
10453;DHT22;5274;51.992;8.518;2022-12-07T15:09:45;4.20;99.90
10453;DHT22;5274;51.992;8.518;2022-12-07T15:12:11;4.20;99.90
10453;DHT22;5274;51.992;8.518;2022-12-07T15:14:36;4.10;99.90
10453;DHT22;5274;51.992;8.518;2022-12-07T15:17:02;4.10;1.00
10453;DHT22;5274;51.992;8.518;2022-12-07T15:19:28;4.10;99.90
10453;DHT22;5274;51.992;8.518;2022-12-07T15:21:54;4.10;1.00
10453;DHT22;5274;51.992;8.518;2022-12-07T15:24:20;4.00;1.00
10453;DHT22;5274;51.992;8.518;2022-12-07T15:26:46;4.00;1.00
10453;DHT22;5274;51.992;8.518;2022-12-07T15:29:13;4.00;1.00
10453;DHT22;5274;51.992;8.518;2022-12-07T15:31:40;4.00;1.00
10453;DHT22;5274;51.992;8.518;2022-12-07T15:34:05;3.90;1.00
10453;DHT22;5274;51.992;8.518;2022-12-07T15:36:32;3.90;1.00
10453;DHT22;5274;51.992;8.518;2022-12-07T15:38:58;3.90;1.00
10453;DHT22;5274;51.992;8.518;2022-12-07T15:41:24;3.90;1.00
10453;DHT22;5274;51.992;8.518;2022-12-07T15:43:50;3.90;1.00
10453;DHT22;5274;51.992;8.518;2022-12-07T15:46:40;3.90;1.00
10453;DHT22;5274;51.992;8.518;2022-12-07T15:49:12;3.90;1.00
10453;DHT22;5274;51.992;8.518;2022-12-07T15:51:38;3.80;1.00
10453;DHT22;5274;51.992;8.518;2022-12-07T15:54:04;3.80;1.00
10453;DHT22;5274;51.992;8.518;2022-12-07T15:56:29;3.80;1.00
10453;DHT22;5274;51.992;8.518;2022-12-07T15:58:56;3.80;1.00
10453;DHT22;5274;51.992;8.518;2022-12-07T16:01:22;3.70;1.00
10453;DHT22;5274;51.992;8.518;2022-12-07T16:03:47;3.70;1.00
10453;DHT22;5274;51.992;8.518;2022-12-07T16:06:16;3.70;1.00
10453;DHT22;5274;51.992;8.518;2022-12-07T16:08:46;3.70;1.00
10453;DHT22;5274;51.992;8.518;2022-12-07T16:11:12;3.70;1.00
10453;DHT22;5274;51.992;8.518;2022-12-07T16:13:38;3.70;1.00
10453;DHT22;5274;51.992;8.518;2022-12-07T16:16:07;3.70;34.10
10453;DHT22;5274;51.992;8.518;2022-12-07T16:18:34;3.70;16.10
10453;DHT22;5274;51.992;8.518;2022-12-07T16:21:00;3.70;1.00
10453;DHT22;5274;51.992;8.518;2022-12-07T16:23:27;3.70;39.60
10453;DHT22;5274;51.992;8.518;2022-12-07T16:25:53;3.70;1.00
10453;DHT22;5274;51.992;8.518;2022-12-07T16:28:18;3.60;1.00
10453;DHT22;5274;51.992;8.518;2022-12-07T16:30:44;3.60;39.50
10453;DHT22;5274;51.992;8.518;2022-12-07T16:33:10;3.60;20.40
10453;DHT22;5274;51.992;8.518;2022-12-07T16:35:38;3.50;35.60
10453;DHT22;5274;51.992;8.518;2022-12-07T16:38:06;3.50;66.10
10453;DHT22;5274;51.992;8.518;2022-12-07T16:40:32;3.50;74.50
10453;DHT22;5274;51.992;8.518;2022-12-07T16:42:57;3.50;99.90
10453;DHT22;5274;51.992;8.518;2022-12-07T16:45:23;3.50;99.90
10453;DHT22;5274;51.992;8.518;2022-12-07T16:47:48;3.50;66.90
10453;DHT22;5274;51.992;8.518;2022-12-07T16:50:14;3.40;85.40
10453;DHT22;5274;51.992;8.518;2022-12-07T16:52:39;3.40;1.00
10453;DHT22;5274;51.992;8.518;2022-12-07T16:55:05;3.40;13.00
10453;DHT22;5274;51.992;8.518;2022-12-07T16:57:31;3.40;10.50
10453;DHT22;5274;51.992;8.518;2022-12-07T16:59:57;3.40;6.00
10453;DHT22;5274;51.992;8.518;2022-12-07T17:02:22;3.40;4.90
10453;DHT22;5274;51.992;8.518;2022-12-07T17:04:48;3.40;1.00
10453;DHT22;5274;51.992;8.518;2022-12-07T17:07:14;3.40;62.20
10453;DHT22;5274;51.992;8.518;2022-12-07T17:09:39;3.40;7.00
10453;DHT22;5274;51.992;8.518;2022-12-07T17:12:05;3.40;56.20
10453;DHT22;5274;51.992;8.518;2022-12-07T17:14:31;3.40;12.40
10453;DHT22;5274;51.992;8.518;2022-12-07T17:17:15;3.30;34.10
10453;DHT22;5274;51.992;8.518;2022-12-07T17:19:41;3.30;51.60
10453;DHT22;5274;51.992;8.518;2022-12-07T17:22:07;3.30;45.70
10453;DHT22;5274;51.992;8.518;2022-12-07T17:24:33;3.20;1.00
10453;DHT22;5274;51.992;8.518;2022-12-07T17:26:58;3.20;45.20
10453;DHT22;5274;51.992;8.518;2022-12-07T17:29:24;3.20;58.00
10453;DHT22;5274;51.992;8.518;2022-12-07T17:31:49;3.20;40.20
10453;DHT22;5274;51.992;8.518;2022-12-07T17:34:15;3.10;98.20
10453;DHT22;5274;51.992;8.518;2022-12-07T17:36:41;3.10;90.00
10453;DHT22;5274;51.992;8.518;2022-12-07T17:39:09;3.10;78.20
10453;DHT22;5274;51.992;8.518;2022-12-07T17:41:35;3.10;99.90
10453;DHT22;5274;51.992;8.518;2022-12-07T17:44:19;3.20;29.50
10453;DHT22;5274;51.992;8.518;2022-12-07T17:46:48;3.20;62.80
10453;DHT22;5274;51.992;8.518;2022-12-07T17:49:14;3.20;99.90
10453;DHT22;5274;51.992;8.518;2022-12-07T17:51:39;3.20;81.30
10453;DHT22;5274;51.992;8.518;2022-12-07T17:54:24;3.20;11.30
10453;DHT22;5274;51.992;8.518;2022-12-07T17:56:49;3.20;50.20
10453;DHT22;5274;51.992;8.518;2022-12-07T17:59:15;3.20;54.30
10453;DHT22;5274;51.992;8.518;2022-12-07T18:01:41;3.20;37.70
10453;DHT22;5274;51.992;8.518;2022-12-07T18:04:07;3.30;74.80
10453;DHT22;5274;51.992;8.518;2022-12-07T18:06:33;3.30;14.90
10453;DHT22;5274;51.992;8.518;2022-12-07T18:08:59;3.20;18.20
10453;DHT22;5274;51.992;8.518;2022-12-07T18:11:24;3.30;15.10
10453;DHT22;5274;51.992;8.518;2022-12-07T18:13:50;3.30;1.00
10453;DHT22;5274;51.992;8.518;2022-12-07T18:16:19;3.20;57.50
10453;DHT22;5274;51.992;8.518;2022-12-07T18:18:46;3.30;17.70
10453;DHT22;5274;51.992;8.518;2022-12-07T18:21:14;3.30;50.30
10453;DHT22;5274;51.992;8.518;2022-12-07T18:23:46;3.30;55.80